sensor_id;sensor_type;location;lat;lon;timestamp;temperature;humidity
32201;DHT22;18701;45.588;5.288;2022-08-20T00:00:24;21.30;99.90
32201;DHT22;18701;45.588;5.288;2022-08-20T00:02:59;21.30;99.90
32201;DHT22;18701;45.588;5.288;2022-08-20T00:05:30;21.20;99.90
32201;DHT22;18701;45.588;5.288;2022-08-20T00:07:56;21.20;99.90
32201;DHT22;18701;45.588;5.288;2022-08-20T00:10:24;21.20;99.90
32201;DHT22;18701;45.588;5.288;2022-08-20T00:12:50;21.10;99.90
32201;DHT22;18701;45.588;5.288;2022-08-20T00:15:19;21.20;99.90
32201;DHT22;18701;45.588;5.288;2022-08-20T00:17:47;21.10;99.90
32201;DHT22;18701;45.588;5.288;2022-08-20T00:20:18;21.20;99.90
32201;DHT22;18701;45.588;5.288;2022-08-20T00:22:44;21.20;99.90
32201;DHT22;18701;45.588;5.288;2022-08-20T00:25:11;21.20;99.90
32201;DHT22;18701;45.588;5.288;2022-08-20T00:27:36;21.20;99.90
32201;DHT22;18701;45.588;5.288;2022-08-20T00:30:06;21.10;99.90
32201;DHT22;18701;45.588;5.288;2022-08-20T00:32:41;21.00;99.90
32201;DHT22;18701;45.588;5.288;2022-08-20T00:35:07;21.10;99.90
32201;DHT22;18701;45.588;5.288;2022-08-20T00:37:35;21.10;99.90
32201;DHT22;18701;45.588;5.288;2022-08-20T00:40:01;21.10;99.90
32201;DHT22;18701;45.588;5.288;2022-08-20T00:42:27;21.00;99.90
32201;DHT22;18701;45.588;5.288;2022-08-20T00:44:53;21.00;99.90
32201;DHT22;18701;45.588;5.288;2022-08-20T00:47:18;21.00;99.90
32201;DHT22;18701;45.588;5.288;2022-08-20T00:49:44;21.00;99.90
32201;DHT22;18701;45.588;5.288;2022-08-20T00:52:17;21.10;99.90
32201;DHT22;18701;45.588;5.288;2022-08-20T00:54:53;21.00;99.90
32201;DHT22;18701;45.588;5.288;2022-08-20T00:57:29;20.90;99.90
32201;DHT22;18701;45.588;5.288;2022-08-20T00:59:57;21.00;99.90
32201;DHT22;18701;45.588;5.288;2022-08-20T01:02:25;21.00;99.90
32201;DHT22;18701;45.588;5.288;2022-08-20T01:04:53;21.00;99.90
32201;DHT22;18701;45.588;5.288;2022-08-20T01:07:20;20.90;99.90
32201;DHT22;18701;45.588;5.288;2022-08-20T01:09:48;21.00;99.90
32201;DHT22;18701;45.588;5.288;2022-08-20T01:12:15;21.00;99.90
32201;DHT22;18701;45.588;5.288;2022-08-20T01:14:41;20.90;99.90
32201;DHT22;18701;45.588;5.288;2022-08-20T01:17:18;20.80;99.90
32201;DHT22;18701;45.588;5.288;2022-08-20T01:20:00;20.70;99.90
32201;DHT22;18701;45.588;5.288;2022-08-20T01:23:07;20.90;99.90
32201;DHT22;18701;45.588;5.288;2022-08-20T01:26:56;20.80;99.90
32201;DHT22;18701;45.588;5.288;2022-08-20T01:29:09;20.90;99.90
32201;DHT22;18701;45.588;5.288;2022-08-20T01:31:39;21.00;99.90
32201;DHT22;18701;45.588;5.288;2022-08-20T01:34:09;20.90;99.90
32201;DHT22;18701;45.588;5.288;2022-08-20T01:36:40;21.00;99.90
32201;DHT22;18701;45.588;5.288;2022-08-20T01:39:11;20.90;99.90
32201;DHT22;18701;45.588;5.288;2022-08-20T01:44:16;20.90;99.90
32201;DHT22;18701;45.588;5.288;2022-08-20T01:46:43;21.00;99.90
32201;DHT22;18701;45.588;5.288;2022-08-20T01:49:14;20.90;99.90
32201;DHT22;18701;45.588;5.288;2022-08-20T01:51:41;20.90;99.90
32201;DHT22;18701;45.588;5.288;2022-08-20T01:54:07;20.90;99.90
32201;DHT22;18701;45.588;5.288;2022-08-20T01:56:33;21.00;99.90
32201;DHT22;18701;45.588;5.288;2022-08-20T01:59:04;20.90;99.90
32201;DHT22;18701;45.588;5.288;2022-08-20T02:01:37;20.90;99.90
32201;DHT22;18701;45.588;5.288;2022-08-20T02:04:09;20.90;99.90
32201;DHT22;18701;45.588;5.288;2022-08-20T02:06:38;20.90;99.90
32201;DHT22;18701;45.588;5.288;2022-08-20T02:09:06;20.90;99.90
32201;DHT22;18701;45.588;5.288;2022-08-20T02:11:33;20.90;99.90
32201;DHT22;18701;45.588;5.288;2022-08-20T02:13:59;20.90;99.90
32201;DHT22;18701;45.588;5.288;2022-08-20T02:16:29;20.80;99.90
32201;DHT22;18701;45.588;5.288;2022-08-20T02:19:02;20.70;99.90
32201;DHT22;18701;45.588;5.288;2022-08-20T02:21:31;20.70;99.90
32201;DHT22;18701;45.588;5.288;2022-08-20T02:23:59;20.70;99.90
32201;DHT22;18701;45.588;5.288;2022-08-20T02:26:25;20.70;99.90
32201;DHT22;18701;45.588;5.288;2022-08-20T02:28:52;20.60;99.90
32201;DHT22;18701;45.588;5.288;2022-08-20T02:31:20;20.60;99.90
32201;DHT22;18701;45.588;5.288;2022-08-20T02:33:46;20.70;99.90
32201;DHT22;18701;45.588;5.288;2022-08-20T02:36:13;20.60;99.90
32201;DHT22;18701;45.588;5.288;2022-08-20T02:38:40;20.70;99.90
32201;DHT22;18701;45.588;5.288;2022-08-20T02:41:06;20.30;99.90
32201;DHT22;18701;45.588;5.288;2022-08-20T02:43:32;20.50;99.90
32201;DHT22;18701;45.588;5.288;2022-08-20T02:45:58;20.60;99.90
32201;DHT22;18701;45.588;5.288;2022-08-20T02:48:24;20.60;99.90
32201;DHT22;18701;45.588;5.288;2022-08-20T02:50:53;20.70;99.90
32201;DHT22;18701;45.588;5.288;2022-08-20T02:53:22;20.60;99.90
32201;DHT22;18701;45.588;5.288;2022-08-20T02:55:48;20.70;99.90
32201;DHT22;18701;45.588;5.288;2022-08-20T02:58:14;20.60;99.90
32201;DHT22;18701;45.588;5.288;2022-08-20T03:00:40;20.60;99.90
32201;DHT22;18701;45.588;5.288;2022-08-20T03:03:08;20.70;99.90
32201;DHT22;18701;45.588;5.288;2022-08-20T03:05:35;20.60;99.90
32201;DHT22;18701;45.588;5.288;2022-08-20T03:08:02;20.60;99.90
32201;DHT22;18701;45.588;5.288;2022-08-20T03:10:31;20.60;99.90
32201;DHT22;18701;45.588;5.288;2022-08-20T03:12:58;20.60;99.90
32201;DHT22;18701;45.588;5.288;2022-08-20T03:15:27;20.70;99.90
32201;DHT22;18701;45.588;5.288;2022-08-20T03:17:53;20.60;99.90
32201;DHT22;18701;45.588;5.288;2022-08-20T03:20:19;20.60;99.90
32201;DHT22;18701;45.588;5.288;2022-08-20T03:22:45;20.60;99.90
32201;DHT22;18701;45.588;5.288;2022-08-20T03:25:14;20.50;99.90
32201;DHT22;18701;45.588;5.288;2022-08-20T03:27:40;20.60;99.90
32201;DHT22;18701;45.588;5.288;2022-08-20T03:30:09;20.70;99.90
32201;DHT22;18701;45.588;5.288;2022-08-20T03:32:36;20.50;99.90
32201;DHT22;18701;45.588;5.288;2022-08-20T03:35:07;20.60;99.90
32201;DHT22;18701;45.588;5.288;2022-08-20T03:37:35;20.60;99.90
32201;DHT22;18701;45.588;5.288;2022-08-20T03:40:03;20.60;99.90
32201;DHT22;18701;45.588;5.288;2022-08-20T03:42:28;20.60;99.90
32201;DHT22;18701;45.588;5.288;2022-08-20T03:44:55;20.60;99.90
32201;DHT22;18701;45.588;5.288;2022-08-20T03:47:21;20.50;99.90
32201;DHT22;18701;45.588;5.288;2022-08-20T03:49:46;20.60;99.90
32201;DHT22;18701;45.588;5.288;2022-08-20T03:52:12;20.60;99.90
32201;DHT22;18701;45.588;5.288;2022-08-20T03:54:38;20.60;99.90
32201;DHT22;18701;45.588;5.288;2022-08-20T03:57:07;20.60;99.90
32201;DHT22;18701;45.588;5.288;2022-08-20T03:59:37;20.60;99.90
32201;DHT22;18701;45.588;5.288;2022-08-20T04:02:03;20.60;99.90
32201;DHT22;18701;45.588;5.288;2022-08-20T04:04:29;20.50;99.90
32201;DHT22;18701;45.588;5.288;2022-08-20T04:06:55;20.50;99.90
32201;DHT22;18701;45.588;5.288;2022-08-20T04:09:20;20.50;99.90
32201;DHT22;18701;45.588;5.288;2022-08-20T04:11:46;20.50;99.90
32201;DHT22;18701;45.588;5.288;2022-08-20T04:14:12;20.50;99.90
32201;DHT22;18701;45.588;5.288;2022-08-20T04:16:38;20.50;99.90
32201;DHT22;18701;45.588;5.288;2022-08-20T04:19:07;20.40;99.90
32201;DHT22;18701;45.588;5.288;2022-08-20T04:21:34;20.40;99.90
32201;DHT22;18701;45.588;5.288;2022-08-20T04:24:02;20.40;99.90
32201;DHT22;18701;45.588;5.288;2022-08-20T04:26:28;20.40;99.90
32201;DHT22;18701;45.588;5.288;2022-08-20T04:28:54;20.40;99.90
32201;DHT22;18701;45.588;5.288;2022-08-20T04:31:20;20.40;99.90
32201;DHT22;18701;45.588;5.288;2022-08-20T04:33:49;20.30;99.90
32201;DHT22;18701;45.588;5.288;2022-08-20T04:36:15;20.30;99.90
32201;DHT22;18701;45.588;5.288;2022-08-20T04:38:40;20.30;99.90
32201;DHT22;18701;45.588;5.288;2022-08-20T04:41:06;20.30;99.90
32201;DHT22;18701;45.588;5.288;2022-08-20T04:43:35;20.20;99.90
32201;DHT22;18701;45.588;5.288;2022-08-20T04:46:06;20.20;99.90
32201;DHT22;18701;45.588;5.288;2022-08-20T04:48:37;20.20;99.90
32201;DHT22;18701;45.588;5.288;2022-08-20T04:51:07;20.20;99.90
32201;DHT22;18701;45.588;5.288;2022-08-20T04:53:33;20.30;99.90
32201;DHT22;18701;45.588;5.288;2022-08-20T04:56:00;20.30;99.90
32201;DHT22;18701;45.588;5.288;2022-08-20T04:58:38;20.40;99.90
32201;DHT22;18701;45.588;5.288;2022-08-20T05:01:09;20.40;99.90
32201;DHT22;18701;45.588;5.288;2022-08-20T05:03:37;20.30;99.90
32201;DHT22;18701;45.588;5.288;2022-08-20T05:06:05;20.40;99.90
32201;DHT22;18701;45.588;5.288;2022-08-20T05:08:31;20.40;99.90
32201;DHT22;18701;45.588;5.288;2022-08-20T05:10:58;20.40;99.90
32201;DHT22;18701;45.588;5.288;2022-08-20T05:13:25;20.40;99.90
32201;DHT22;18701;45.588;5.288;2022-08-20T05:15:51;20.40;99.90
32201;DHT22;18701;45.588;5.288;2022-08-20T05:18:19;20.30;99.90
32201;DHT22;18701;45.588;5.288;2022-08-20T05:20:45;20.30;99.90
32201;DHT22;18701;45.588;5.288;2022-08-20T05:23:13;20.40;99.90
32201;DHT22;18701;45.588;5.288;2022-08-20T05:25:40;20.30;99.90
32201;DHT22;18701;45.588;5.288;2022-08-20T05:28:12;20.40;99.90
32201;DHT22;18701;45.588;5.288;2022-08-20T05:30:42;20.30;99.90
32201;DHT22;18701;45.588;5.288;2022-08-20T05:33:10;20.40;99.90
32201;DHT22;18701;45.588;5.288;2022-08-20T05:35:37;20.30;99.90
32201;DHT22;18701;45.588;5.288;2022-08-20T05:38:11;20.30;99.90
32201;DHT22;18701;45.588;5.288;2022-08-20T05:40:38;20.30;99.90
32201;DHT22;18701;45.588;5.288;2022-08-20T05:43:05;20.30;99.90
32201;DHT22;18701;45.588;5.288;2022-08-20T05:45:33;20.20;99.90
32201;DHT22;18701;45.588;5.288;2022-08-20T05:48:10;20.40;99.90
32201;DHT22;18701;45.588;5.288;2022-08-20T05:50:38;20.50;99.90
32201;DHT22;18701;45.588;5.288;2022-08-20T05:53:07;20.40;99.90
32201;DHT22;18701;45.588;5.288;2022-08-20T05:55:33;20.30;99.90
32201;DHT22;18701;45.588;5.288;2022-08-20T05:58:04;20.40;99.90
32201;DHT22;18701;45.588;5.288;2022-08-20T06:00:31;20.40;99.90
32201;DHT22;18701;45.588;5.288;2022-08-20T06:02:58;20.40;99.90
32201;DHT22;18701;45.588;5.288;2022-08-20T06:05:42;20.40;99.90
32201;DHT22;18701;45.588;5.288;2022-08-20T06:08:09;20.30;99.90
32201;DHT22;18701;45.588;5.288;2022-08-20T06:10:36;20.40;99.90
32201;DHT22;18701;45.588;5.288;2022-08-20T06:13:02;20.40;99.90
32201;DHT22;18701;45.588;5.288;2022-08-20T06:15:29;20.40;99.90
32201;DHT22;18701;45.588;5.288;2022-08-20T06:17:55;20.40;99.90
32201;DHT22;18701;45.588;5.288;2022-08-20T06:20:21;20.20;99.90
32201;DHT22;18701;45.588;5.288;2022-08-20T06:22:47;20.40;99.90
32201;DHT22;18701;45.588;5.288;2022-08-20T06:25:13;20.40;99.90
32201;DHT22;18701;45.588;5.288;2022-08-20T06:27:41;20.30;99.90
32201;DHT22;18701;45.588;5.288;2022-08-20T06:30:09;20.30;99.90
32201;DHT22;18701;45.588;5.288;2022-08-20T06:32:35;20.50;99.90
32201;DHT22;18701;45.588;5.288;2022-08-20T06:35:04;20.50;99.90
32201;DHT22;18701;45.588;5.288;2022-08-20T06:37:32;20.30;99.90
32201;DHT22;18701;45.588;5.288;2022-08-20T06:40:08;20.40;99.90
32201;DHT22;18701;45.588;5.288;2022-08-20T06:42:35;20.20;99.90
32201;DHT22;18701;45.588;5.288;2022-08-20T06:45:01;20.50;99.90
32201;DHT22;18701;45.588;5.288;2022-08-20T06:47:30;20.30;99.90
32201;DHT22;18701;45.588;5.288;2022-08-20T06:49:56;20.10;99.90
32201;DHT22;18701;45.588;5.288;2022-08-20T06:52:22;20.20;99.90
32201;DHT22;18701;45.588;5.288;2022-08-20T06:54:47;20.30;99.90
32201;DHT22;18701;45.588;5.288;2022-08-20T06:57:13;20.40;99.90
32201;DHT22;18701;45.588;5.288;2022-08-20T06:59:39;20.30;99.90
32201;DHT22;18701;45.588;5.288;2022-08-20T07:02:06;20.40;99.90
32201;DHT22;18701;45.588;5.288;2022-08-20T07:04:32;20.40;99.90
32201;DHT22;18701;45.588;5.288;2022-08-20T07:06:57;20.50;99.90
32201;DHT22;18701;45.588;5.288;2022-08-20T07:09:24;20.70;99.90
32201;DHT22;18701;45.588;5.288;2022-08-20T07:11:50;20.80;99.90
32201;DHT22;18701;45.588;5.288;2022-08-20T07:14:17;20.70;99.90
32201;DHT22;18701;45.588;5.288;2022-08-20T07:16:43;20.60;99.90
32201;DHT22;18701;45.588;5.288;2022-08-20T07:19:12;20.70;99.90
32201;DHT22;18701;45.588;5.288;2022-08-20T07:21:38;20.60;99.90
32201;DHT22;18701;45.588;5.288;2022-08-20T07:24:07;20.70;99.90
32201;DHT22;18701;45.588;5.288;2022-08-20T07:26:37;20.70;99.90
32201;DHT22;18701;45.588;5.288;2022-08-20T07:29:02;20.80;99.90
32201;DHT22;18701;45.588;5.288;2022-08-20T07:31:28;20.80;99.90
32201;DHT22;18701;45.588;5.288;2022-08-20T07:34:12;20.90;99.90
32201;DHT22;18701;45.588;5.288;2022-08-20T07:36:38;21.00;99.90
32201;DHT22;18701;45.588;5.288;2022-08-20T07:39:06;20.90;99.90
32201;DHT22;18701;45.588;5.288;2022-08-20T07:41:32;20.70;99.90
32201;DHT22;18701;45.588;5.288;2022-08-20T07:43:58;20.70;99.90
32201;DHT22;18701;45.588;5.288;2022-08-20T07:46:24;20.80;99.90
32201;DHT22;18701;45.588;5.288;2022-08-20T07:48:49;21.00;99.90
32201;DHT22;18701;45.588;5.288;2022-08-20T07:51:18;21.10;99.90
32201;DHT22;18701;45.588;5.288;2022-08-20T07:53:45;21.00;99.90
32201;DHT22;18701;45.588;5.288;2022-08-20T07:56:13;21.00;99.90
32201;DHT22;18701;45.588;5.288;2022-08-20T07:58:48;21.00;99.90
32201;DHT22;18701;45.588;5.288;2022-08-20T08:01:21;21.20;99.90
32201;DHT22;18701;45.588;5.288;2022-08-20T08:03:48;20.90;99.90
32201;DHT22;18701;45.588;5.288;2022-08-20T08:06:15;20.70;99.90
32201;DHT22;18701;45.588;5.288;2022-08-20T08:08:41;20.90;99.90
32201;DHT22;18701;45.588;5.288;2022-08-20T08:11:07;21.10;99.90
32201;DHT22;18701;45.588;5.288;2022-08-20T08:13:39;21.10;99.90
32201;DHT22;18701;45.588;5.288;2022-08-20T08:16:06;21.10;99.90
32201;DHT22;18701;45.588;5.288;2022-08-20T08:18:42;21.10;99.90
32201;DHT22;18701;45.588;5.288;2022-08-20T08:21:10;21.00;99.90
32201;DHT22;18701;45.588;5.288;2022-08-20T08:23:41;21.20;99.90
32201;DHT22;18701;45.588;5.288;2022-08-20T08:26:10;21.00;99.90
32201;DHT22;18701;45.588;5.288;2022-08-20T08:28:36;21.10;99.90
32201;DHT22;18701;45.588;5.288;2022-08-20T08:31:01;21.10;99.90
32201;DHT22;18701;45.588;5.288;2022-08-20T08:33:29;21.10;99.90
32201;DHT22;18701;45.588;5.288;2022-08-20T08:35:59;21.00;99.90
32201;DHT22;18701;45.588;5.288;2022-08-20T08:38:27;21.00;99.90
32201;DHT22;18701;45.588;5.288;2022-08-20T08:40:55;21.10;99.90
32201;DHT22;18701;45.588;5.288;2022-08-20T08:43:23;21.20;99.90
32201;DHT22;18701;45.588;5.288;2022-08-20T08:45:57;21.20;99.90
32201;DHT22;18701;45.588;5.288;2022-08-20T08:48:30;21.40;99.90
32201;DHT22;18701;45.588;5.288;2022-08-20T08:50:57;21.60;99.90
32201;DHT22;18701;45.588;5.288;2022-08-20T08:53:28;22.10;99.90
32201;DHT22;18701;45.588;5.288;2022-08-20T08:55:55;21.70;99.90
32201;DHT22;18701;45.588;5.288;2022-08-20T08:58:20;22.10;99.90
32201;DHT22;18701;45.588;5.288;2022-08-20T09:00:46;22.40;99.90
32201;DHT22;18701;45.588;5.288;2022-08-20T09:03:22;22.60;99.90
32201;DHT22;18701;45.588;5.288;2022-08-20T09:05:52;22.90;99.90
32201;DHT22;18701;45.588;5.288;2022-08-20T09:08:31;22.60;99.90
32201;DHT22;18701;45.588;5.288;2022-08-20T09:11:07;22.70;99.90
32201;DHT22;18701;45.588;5.288;2022-08-20T09:13:36;23.10;99.90
32201;DHT22;18701;45.588;5.288;2022-08-20T09:16:02;22.90;99.90
32201;DHT22;18701;45.588;5.288;2022-08-20T09:18:28;22.80;99.90
32201;DHT22;18701;45.588;5.288;2022-08-20T09:20:54;22.90;99.90
32201;DHT22;18701;45.588;5.288;2022-08-20T09:23:20;22.80;99.90
32201;DHT22;18701;45.588;5.288;2022-08-20T09:25:45;22.70;99.90
32201;DHT22;18701;45.588;5.288;2022-08-20T09:28:11;22.80;99.90
32201;DHT22;18701;45.588;5.288;2022-08-20T09:30:36;22.70;99.90
32201;DHT22;18701;45.588;5.288;2022-08-20T09:33:02;22.80;99.90
32201;DHT22;18701;45.588;5.288;2022-08-20T09:35:28;23.00;99.90
32201;DHT22;18701;45.588;5.288;2022-08-20T09:37:54;22.90;99.90
32201;DHT22;18701;45.588;5.288;2022-08-20T09:40:20;23.00;99.90
32201;DHT22;18701;45.588;5.288;2022-08-20T09:42:46;23.00;99.90
32201;DHT22;18701;45.588;5.288;2022-08-20T09:45:13;23.40;99.90
32201;DHT22;18701;45.588;5.288;2022-08-20T09:47:39;23.60;99.90
32201;DHT22;18701;45.588;5.288;2022-08-20T09:50:05;24.10;99.90
32201;DHT22;18701;45.588;5.288;2022-08-20T09:52:40;23.90;99.90
32201;DHT22;18701;45.588;5.288;2022-08-20T09:57:56;23.60;99.90
32201;DHT22;18701;45.588;5.288;2022-08-20T10:00:21;23.50;99.90
32201;DHT22;18701;45.588;5.288;2022-08-20T10:02:47;23.40;99.90
32201;DHT22;18701;45.588;5.288;2022-08-20T10:05:13;23.80;99.90
32201;DHT22;18701;45.588;5.288;2022-08-20T10:07:40;23.90;99.90
32201;DHT22;18701;45.588;5.288;2022-08-20T10:10:08;24.00;99.90
32201;DHT22;18701;45.588;5.288;2022-08-20T10:12:37;24.10;99.90
32201;DHT22;18701;45.588;5.288;2022-08-20T10:15:06;24.00;99.90
32201;DHT22;18701;45.588;5.288;2022-08-20T10:17:35;24.00;99.90
32201;DHT22;18701;45.588;5.288;2022-08-20T10:20:01;23.90;99.90
32201;DHT22;18701;45.588;5.288;2022-08-20T10:22:27;23.90;99.90
32201;DHT22;18701;45.588;5.288;2022-08-20T10:24:52;23.80;99.90
32201;DHT22;18701;45.588;5.288;2022-08-20T10:27:18;23.80;99.90
32201;DHT22;18701;45.588;5.288;2022-08-20T10:29:43;23.80;99.90
32201;DHT22;18701;45.588;5.288;2022-08-20T10:32:11;24.20;99.90
32201;DHT22;18701;45.588;5.288;2022-08-20T10:34:42;24.40;99.90
32201;DHT22;18701;45.588;5.288;2022-08-20T10:37:09;24.40;99.90
32201;DHT22;18701;45.588;5.288;2022-08-20T10:39:38;24.90;99.90
32201;DHT22;18701;45.588;5.288;2022-08-20T10:42:06;24.90;99.90
32201;DHT22;18701;45.588;5.288;2022-08-20T10:44:32;25.10;99.90
32201;DHT22;18701;45.588;5.288;2022-08-20T10:47:01;25.40;99.90
32201;DHT22;18701;45.588;5.288;2022-08-20T10:49:36;25.70;99.90
32201;DHT22;18701;45.588;5.288;2022-08-20T10:52:02;25.40;99.90
32201;DHT22;18701;45.588;5.288;2022-08-20T10:54:28;25.30;99.90
32201;DHT22;18701;45.588;5.288;2022-08-20T10:56:53;25.40;99.90
32201;DHT22;18701;45.588;5.288;2022-08-20T10:59:19;25.40;99.90
32201;DHT22;18701;45.588;5.288;2022-08-20T11:01:44;25.60;99.90
32201;DHT22;18701;45.588;5.288;2022-08-20T11:04:10;25.60;99.90
32201;DHT22;18701;45.588;5.288;2022-08-20T11:06:36;25.80;99.90
32201;DHT22;18701;45.588;5.288;2022-08-20T11:09:01;26.00;99.90
32201;DHT22;18701;45.588;5.288;2022-08-20T11:11:27;25.20;99.90
32201;DHT22;18701;45.588;5.288;2022-08-20T11:13:53;25.40;99.90
32201;DHT22;18701;45.588;5.288;2022-08-20T11:16:18;25.90;99.90
32201;DHT22;18701;45.588;5.288;2022-08-20T11:18:44;26.50;99.90
32201;DHT22;18701;45.588;5.288;2022-08-20T11:21:09;26.10;99.90
32201;DHT22;18701;45.588;5.288;2022-08-20T11:23:35;26.20;99.90
32201;DHT22;18701;45.588;5.288;2022-08-20T11:26:00;26.30;99.90
32201;DHT22;18701;45.588;5.288;2022-08-20T11:28:26;26.00;99.90
32201;DHT22;18701;45.588;5.288;2022-08-20T11:30:54;26.40;99.90
32201;DHT22;18701;45.588;5.288;2022-08-20T11:33:20;26.80;99.90
32201;DHT22;18701;45.588;5.288;2022-08-20T11:35:46;26.30;99.90
32201;DHT22;18701;45.588;5.288;2022-08-20T11:38:11;26.40;99.90
32201;DHT22;18701;45.588;5.288;2022-08-20T11:40:37;25.80;99.90
32201;DHT22;18701;45.588;5.288;2022-08-20T11:43:03;26.20;99.90
32201;DHT22;18701;45.588;5.288;2022-08-20T11:45:28;26.50;99.90
32201;DHT22;18701;45.588;5.288;2022-08-20T11:47:54;26.30;99.90
32201;DHT22;18701;45.588;5.288;2022-08-20T11:50:20;25.90;99.90
32201;DHT22;18701;45.588;5.288;2022-08-20T11:52:46;26.00;99.90
32201;DHT22;18701;45.588;5.288;2022-08-20T11:55:14;26.60;99.90
32201;DHT22;18701;45.588;5.288;2022-08-20T11:57:42;27.00;99.90
32201;DHT22;18701;45.588;5.288;2022-08-20T12:00:15;26.80;99.90
32201;DHT22;18701;45.588;5.288;2022-08-20T12:02:41;26.80;99.90
32201;DHT22;18701;45.588;5.288;2022-08-20T12:05:09;27.10;99.90
32201;DHT22;18701;45.588;5.288;2022-08-20T12:07:34;27.40;99.90
32201;DHT22;18701;45.588;5.288;2022-08-20T12:10:00;27.00;99.90
32201;DHT22;18701;45.588;5.288;2022-08-20T12:12:25;27.10;99.90
32201;DHT22;18701;45.588;5.288;2022-08-20T12:14:52;27.40;99.90
32201;DHT22;18701;45.588;5.288;2022-08-20T12:17:22;27.90;99.90
32201;DHT22;18701;45.588;5.288;2022-08-20T12:19:50;28.40;99.90
32201;DHT22;18701;45.588;5.288;2022-08-20T12:22:17;27.20;99.90
32201;DHT22;18701;45.588;5.288;2022-08-20T12:24:42;26.80;99.90
32201;DHT22;18701;45.588;5.288;2022-08-20T12:29:36;27.20;99.90
32201;DHT22;18701;45.588;5.288;2022-08-20T12:32:03;27.30;99.90
32201;DHT22;18701;45.588;5.288;2022-08-20T12:34:33;27.60;99.90
32201;DHT22;18701;45.588;5.288;2022-08-20T12:37:01;27.50;99.90
32201;DHT22;18701;45.588;5.288;2022-08-20T12:39:27;27.80;99.90
32201;DHT22;18701;45.588;5.288;2022-08-20T12:41:56;26.90;99.90
32201;DHT22;18701;45.588;5.288;2022-08-20T12:44:22;27.00;99.90
32201;DHT22;18701;45.588;5.288;2022-08-20T12:46:48;27.40;99.90
32201;DHT22;18701;45.588;5.288;2022-08-20T12:49:14;27.80;99.90
32201;DHT22;18701;45.588;5.288;2022-08-20T12:51:39;27.00;99.90
32201;DHT22;18701;45.588;5.288;2022-08-20T12:54:05;27.00;99.90
32201;DHT22;18701;45.588;5.288;2022-08-20T12:56:31;27.90;99.90
32201;DHT22;18701;45.588;5.288;2022-08-20T12:58:56;26.90;99.90
32201;DHT22;18701;45.588;5.288;2022-08-20T13:01:22;27.00;99.90
32201;DHT22;18701;45.588;5.288;2022-08-20T13:03:47;27.60;99.90
32201;DHT22;18701;45.588;5.288;2022-08-20T13:06:13;27.30;99.90
32201;DHT22;18701;45.588;5.288;2022-08-20T13:08:38;26.80;99.90
32201;DHT22;18701;45.588;5.288;2022-08-20T13:11:07;26.90;99.90
32201;DHT22;18701;45.588;5.288;2022-08-20T13:13:33;27.00;99.90
32201;DHT22;18701;45.588;5.288;2022-08-20T13:15:58;27.30;99.90
32201;DHT22;18701;45.588;5.288;2022-08-20T13:18:24;27.60;99.90
32201;DHT22;18701;45.588;5.288;2022-08-20T13:20:49;27.80;99.90
32201;DHT22;18701;45.588;5.288;2022-08-20T13:23:15;28.20;99.90
32201;DHT22;18701;45.588;5.288;2022-08-20T13:25:41;27.80;99.90
32201;DHT22;18701;45.588;5.288;2022-08-20T13:28:07;27.60;99.90
32201;DHT22;18701;45.588;5.288;2022-08-20T13:30:36;28.10;99.90
32201;DHT22;18701;45.588;5.288;2022-08-20T13:33:03;28.40;99.90
32201;DHT22;18701;45.588;5.288;2022-08-20T13:35:31;28.30;99.90
32201;DHT22;18701;45.588;5.288;2022-08-20T13:37:56;28.60;99.90
32201;DHT22;18701;45.588;5.288;2022-08-20T13:40:22;28.60;99.90
32201;DHT22;18701;45.588;5.288;2022-08-20T13:42:48;28.70;99.80
32201;DHT22;18701;45.588;5.288;2022-08-20T13:45:13;29.30;99.90
32201;DHT22;18701;45.588;5.288;2022-08-20T13:47:40;28.80;99.50
32201;DHT22;18701;45.588;5.288;2022-08-20T13:50:11;29.00;99.90
32201;DHT22;18701;45.588;5.288;2022-08-20T13:52:38;30.00;99.40
32201;DHT22;18701;45.588;5.288;2022-08-20T13:55:10;30.20;98.60
32201;DHT22;18701;45.588;5.288;2022-08-20T13:57:37;30.20;99.20
32201;DHT22;18701;45.588;5.288;2022-08-20T14:00:05;30.50;98.80
32201;DHT22;18701;45.588;5.288;2022-08-20T14:02:32;30.20;98.80
32201;DHT22;18701;45.588;5.288;2022-08-20T14:04:58;28.60;99.60
32201;DHT22;18701;45.588;5.288;2022-08-20T14:07:26;28.70;99.90
32201;DHT22;18701;45.588;5.288;2022-08-20T14:10:22;29.40;99.20
32201;DHT22;18701;45.588;5.288;2022-08-20T14:12:49;29.90;98.20
32201;DHT22;18701;45.588;5.288;2022-08-20T14:15:15;29.20;97.10
32201;DHT22;18701;45.588;5.288;2022-08-20T14:17:48;29.30;97.10
32201;DHT22;18701;45.588;5.288;2022-08-20T14:20:17;29.40;97.10
32201;DHT22;18701;45.588;5.288;2022-08-20T14:22:44;29.00;97.60
32201;DHT22;18701;45.588;5.288;2022-08-20T14:25:12;29.20;97.70
32201;DHT22;18701;45.588;5.288;2022-08-20T14:27:38;29.20;97.50
32201;DHT22;18701;45.588;5.288;2022-08-20T14:30:10;29.60;98.70
32201;DHT22;18701;45.588;5.288;2022-08-20T14:32:36;30.30;97.80
32201;DHT22;18701;45.588;5.288;2022-08-20T14:35:03;29.20;97.80
32201;DHT22;18701;45.588;5.288;2022-08-20T14:37:31;29.20;97.80
32201;DHT22;18701;45.588;5.288;2022-08-20T14:39:58;28.80;97.90
32201;DHT22;18701;45.588;5.288;2022-08-20T14:42:25;29.10;97.70
32201;DHT22;18701;45.588;5.288;2022-08-20T14:44:53;29.80;97.30
32201;DHT22;18701;45.588;5.288;2022-08-20T14:47:21;30.50;97.10
32201;DHT22;18701;45.588;5.288;2022-08-20T14:49:48;30.00;96.60
32201;DHT22;18701;45.588;5.288;2022-08-20T14:52:15;30.60;97.30
32201;DHT22;18701;45.588;5.288;2022-08-20T14:54:43;30.20;97.20
32201;DHT22;18701;45.588;5.288;2022-08-20T14:57:09;30.50;96.60
32201;DHT22;18701;45.588;5.288;2022-08-20T14:59:36;31.00;96.20
32201;DHT22;18701;45.588;5.288;2022-08-20T15:02:07;30.40;95.50
32201;DHT22;18701;45.588;5.288;2022-08-20T15:04:36;31.20;96.30
32201;DHT22;18701;45.588;5.288;2022-08-20T15:07:03;31.70;95.60
32201;DHT22;18701;45.588;5.288;2022-08-20T15:09:37;31.00;94.80
32201;DHT22;18701;45.588;5.288;2022-08-20T15:12:02;30.00;95.30
32201;DHT22;18701;45.588;5.288;2022-08-20T15:14:28;30.40;95.40
32201;DHT22;18701;45.588;5.288;2022-08-20T15:16:54;29.80;95.10
32201;DHT22;18701;45.588;5.288;2022-08-20T15:19:20;29.50;95.60
32201;DHT22;18701;45.588;5.288;2022-08-20T15:21:45;30.20;96.40
32201;DHT22;18701;45.588;5.288;2022-08-20T15:24:12;30.10;95.60
32201;DHT22;18701;45.588;5.288;2022-08-20T15:26:38;29.40;95.60
32201;DHT22;18701;45.588;5.288;2022-08-20T15:29:07;29.20;96.00
32201;DHT22;18701;45.588;5.288;2022-08-20T15:31:33;29.80;96.20
32201;DHT22;18701;45.588;5.288;2022-08-20T15:33:59;29.80;96.20
32201;DHT22;18701;45.588;5.288;2022-08-20T15:36:24;29.40;95.40
32201;DHT22;18701;45.588;5.288;2022-08-20T15:38:50;29.40;95.20
32201;DHT22;18701;45.588;5.288;2022-08-20T15:41:16;29.90;95.00